sensor_id;sensor_type;location;lat;lon;timestamp;pressure;altitude;pressure_sealevel;temperature;humidity
54042;BME280;41156;51.508;5.406;2022-12-08T00:02:20;101034.44;;;2.59;100.00
54042;BME280;41156;51.508;5.406;2022-12-08T00:05:20;101033.63;;;2.58;100.00
54042;BME280;41156;51.508;5.406;2022-12-08T00:08:41;101027.13;;;2.61;100.00
54042;BME280;41156;51.508;5.406;2022-12-08T00:12:03;101023.16;;;2.65;100.00
54042;BME280;41156;51.508;5.406;2022-12-08T00:15:03;101016.81;;;2.66;100.00
54042;BME280;41156;51.508;5.406;2022-12-08T00:18:04;101009.66;;;2.67;100.00
54042;BME280;41156;51.508;5.406;2022-12-08T00:21:04;101004.00;;;2.70;100.00
54042;BME280;41156;51.508;5.406;2022-12-08T00:24:05;101001.34;;;2.70;100.00
54042;BME280;41156;51.508;5.406;2022-12-08T00:27:07;100996.69;;;2.72;100.00
54042;BME280;41156;51.508;5.406;2022-12-08T00:30:09;100990.16;;;2.74;100.00
54042;BME280;41156;51.508;5.406;2022-12-08T00:33:10;100988.34;;;2.75;100.00
54042;BME280;41156;51.508;5.406;2022-12-08T00:36:12;100989.34;;;2.74;100.00
54042;BME280;41156;51.508;5.406;2022-12-08T00:39:14;100991.03;;;2.75;100.00
54042;BME280;41156;51.508;5.406;2022-12-08T00:42:15;100986.34;;;2.77;100.00
54042;BME280;41156;51.508;5.406;2022-12-08T00:45:16;100974.66;;;2.78;100.00
54042;BME280;41156;51.508;5.406;2022-12-08T00:48:16;100974.34;;;2.81;100.00
54042;BME280;41156;51.508;5.406;2022-12-08T00:51:16;100977.72;;;2.83;100.00
54042;BME280;41156;51.508;5.406;2022-12-08T00:54:17;100972.19;;;2.85;100.00
54042;BME280;41156;51.508;5.406;2022-12-08T00:57:17;100967.72;;;2.85;100.00
54042;BME280;41156;51.508;5.406;2022-12-08T01:00:18;100972.38;;;2.83;100.00
54042;BME280;41156;51.508;5.406;2022-12-08T01:03:18;100961.69;;;2.83;100.00
54042;BME280;41156;51.508;5.406;2022-12-08T01:06:18;100966.34;;;2.81;100.00
54042;BME280;41156;51.508;5.406;2022-12-08T01:09:19;100963.66;;;2.81;100.00
54042;BME280;41156;51.508;5.406;2022-12-08T01:12:19;100954.69;;;2.82;100.00
54042;BME280;41156;51.508;5.406;2022-12-08T01:15:19;100955.50;;;2.83;100.00
54042;BME280;41156;51.508;5.406;2022-12-08T01:18:20;100952.00;;;2.82;100.00
54042;BME280;41156;51.508;5.406;2022-12-08T01:21:20;100950.16;;;2.83;100.00
54042;BME280;41156;51.508;5.406;2022-12-08T01:24:21;100949.50;;;2.81;100.00
54042;BME280;41156;51.508;5.406;2022-12-08T01:27:21;100943.34;;;2.80;100.00
54042;BME280;41156;51.508;5.406;2022-12-08T01:30:21;100945.31;;;2.78;100.00
54042;BME280;41156;51.508;5.406;2022-12-08T01:33:22;100941.50;;;2.81;100.00
54042;BME280;41156;51.508;5.406;2022-12-08T01:36:25;100946.34;;;2.85;100.00
54042;BME280;41156;51.508;5.406;2022-12-08T01:39:26;100947.84;;;2.88;100.00
54042;BME280;41156;51.508;5.406;2022-12-08T01:42:26;100944.69;;;2.92;100.00
54042;BME280;41156;51.508;5.406;2022-12-08T01:45:29;100941.72;;;2.95;100.00
54042;BME280;41156;51.508;5.406;2022-12-08T01:48:30;100942.22;;;2.99;100.00
54042;BME280;41156;51.508;5.406;2022-12-08T01:51:35;100942.06;;;3.01;100.00
54042;BME280;41156;51.508;5.406;2022-12-08T01:54:48;100933.88;;;3.02;100.00
54042;BME280;41156;51.508;5.406;2022-12-08T01:57:57;100931.22;;;3.02;100.00
54042;BME280;41156;51.508;5.406;2022-12-08T02:00:59;100934.03;;;3.01;100.00
54042;BME280;41156;51.508;5.406;2022-12-08T02:04:02;100929.69;;;3.00;100.00
54042;BME280;41156;51.508;5.406;2022-12-08T02:07:04;100930.56;;;3.00;100.00
54042;BME280;41156;51.508;5.406;2022-12-08T02:10:06;100933.22;;;3.00;100.00
54042;BME280;41156;51.508;5.406;2022-12-08T02:13:12;100916.50;;;2.98;100.00
54042;BME280;41156;51.508;5.406;2022-12-08T02:22:40;100913.16;;;2.96;100.00
54042;BME280;41156;51.508;5.406;2022-12-08T02:26:22;100917.69;;;2.95;100.00
54042;BME280;41156;51.508;5.406;2022-12-08T02:33:08;100899.97;;;2.94;100.00
54042;BME280;41156;51.508;5.406;2022-12-08T02:36:23;100896.50;;;2.94;100.00
54042;BME280;41156;51.508;5.406;2022-12-08T02:42:46;100885.97;;;2.92;100.00
54042;BME280;41156;51.508;5.406;2022-12-08T02:45:51;100873.97;;;2.88;100.00
54042;BME280;41156;51.508;5.406;2022-12-08T02:48:54;100876.47;;;2.90;100.00
54042;BME280;41156;51.508;5.406;2022-12-08T03:02:34;100863.78;;;2.92;100.00
54042;BME280;41156;51.508;5.406;2022-12-08T03:06:02;100856.94;;;2.89;100.00
54042;BME280;41156;51.508;5.406;2022-12-08T03:09:38;100855.13;;;2.90;100.00
54042;BME280;41156;51.508;5.406;2022-12-08T03:12:46;100854.25;;;2.89;100.00
54042;BME280;41156;51.508;5.406;2022-12-08T03:15:49;100853.44;;;2.89;100.00
54042;BME280;41156;51.508;5.406;2022-12-08T03:18:59;100849.78;;;2.90;100.00
54042;BME280;41156;51.508;5.406;2022-12-08T03:22:02;100850.59;;;2.90;100.00
54042;BME280;41156;51.508;5.406;2022-12-08T03:25:04;100837.75;;;2.94;100.00
54042;BME280;41156;51.508;5.406;2022-12-08T03:28:05;100844.94;;;2.93;100.00
54042;BME280;41156;51.508;5.406;2022-12-08T03:31:08;100834.94;;;2.95;100.00
54042;BME280;41156;51.508;5.406;2022-12-08T03:34:11;100836.41;;;2.98;100.00
54042;BME280;41156;51.508;5.406;2022-12-08T03:37:13;100833.59;;;3.00;100.00
54042;BME280;41156;51.508;5.406;2022-12-08T03:40:17;100827.25;;;3.01;100.00
54042;BME280;41156;51.508;5.406;2022-12-08T03:43:18;100825.09;;;3.04;100.00
54042;BME280;41156;51.508;5.406;2022-12-08T03:46:20;100826.94;;;3.04;100.00
54042;BME280;41156;51.508;5.406;2022-12-08T03:49:21;100826.59;;;2.99;100.00
54042;BME280;41156;51.508;5.406;2022-12-08T03:52:21;100816.91;;;2.97;100.00
54042;BME280;41156;51.508;5.406;2022-12-08T03:55:21;100820.41;;;2.98;100.00
54042;BME280;41156;51.508;5.406;2022-12-08T03:58:22;100818.44;;;3.00;100.00
54042;BME280;41156;51.508;5.406;2022-12-08T04:01:23;100811.09;;;3.02;100.00
54042;BME280;41156;51.508;5.406;2022-12-08T04:04:23;100810.91;;;3.04;100.00
54042;BME280;41156;51.508;5.406;2022-12-08T04:07:23;100809.91;;;3.05;100.00
54042;BME280;41156;51.508;5.406;2022-12-08T04:10:24;100805.41;;;3.13;100.00
54042;BME280;41156;51.508;5.406;2022-12-08T04:13:24;100797.25;;;3.15;100.00
54042;BME280;41156;51.508;5.406;2022-12-08T04:16:25;100798.06;;;3.15;100.00
54042;BME280;41156;51.508;5.406;2022-12-08T04:19:26;100804.06;;;3.09;100.00
54042;BME280;41156;51.508;5.406;2022-12-08T04:22:27;100805.91;;;3.09;100.00
54042;BME280;41156;51.508;5.406;2022-12-08T04:25:27;100807.59;;;3.10;100.00
54042;BME280;41156;51.508;5.406;2022-12-08T04:28:27;100805.91;;;3.09;100.00
54042;BME280;41156;51.508;5.406;2022-12-08T04:31:28;100800.72;;;3.15;100.00
54042;BME280;41156;51.508;5.406;2022-12-08T04:34:28;100793.53;;;3.16;100.00
54042;BME280;41156;51.508;5.406;2022-12-08T04:37:29;100792.06;;;3.13;100.00
54042;BME280;41156;51.508;5.406;2022-12-08T04:40:29;100790.22;;;3.14;100.00
54042;BME280;41156;51.508;5.406;2022-12-08T04:43:29;100786.72;;;3.13;100.00
54042;BME280;41156;51.508;5.406;2022-12-08T04:46:29;100780.53;;;3.13;100.00
54042;BME280;41156;51.508;5.406;2022-12-08T04:49:30;100769.84;;;3.13;100.00
54042;BME280;41156;51.508;5.406;2022-12-08T04:52:30;100758.19;;;3.06;100.00
54042;BME280;41156;51.508;5.406;2022-12-08T04:55:31;100763.84;;;3.03;100.00
54042;BME280;41156;51.508;5.406;2022-12-08T04:58:31;100777.53;;;3.00;100.00
54042;BME280;41156;51.508;5.406;2022-12-08T05:01:31;100766.03;;;2.99;100.00
54042;BME280;41156;51.508;5.406;2022-12-08T05:04:31;100767.53;;;3.02;100.00
54042;BME280;41156;51.508;5.406;2022-12-08T05:07:32;100768.19;;;2.95;100.00
54042;BME280;41156;51.508;5.406;2022-12-08T05:10:32;100772.34;;;2.98;100.00
54042;BME280;41156;51.508;5.406;2022-12-08T05:13:32;100784.22;;;3.04;100.00
54042;BME280;41156;51.508;5.406;2022-12-08T05:16:33;100778.72;;;3.05;100.00
54042;BME280;41156;51.508;5.406;2022-12-08T05:19:33;100777.03;;;3.04;100.00
54042;BME280;41156;51.508;5.406;2022-12-08T05:22:33;100769.84;;;3.05;100.00
54042;BME280;41156;51.508;5.406;2022-12-08T05:25:34;100774.19;;;3.06;100.00
54042;BME280;41156;51.508;5.406;2022-12-08T05:28:34;100772.72;;;3.03;100.00
54042;BME280;41156;51.508;5.406;2022-12-08T05:31:34;100775.38;;;3.03;100.00
54042;BME280;41156;51.508;5.406;2022-12-08T05:34:34;100768.19;;;3.04;100.00
54042;BME280;41156;51.508;5.406;2022-12-08T05:37:35;100768.84;;;3.06;100.00
54042;BME280;41156;51.508;5.406;2022-12-08T05:40:39;100774.38;;;3.04;100.00
54042;BME280;41156;51.508;5.406;2022-12-08T05:43:40;100764.88;;;3.02;100.00
54042;BME280;41156;51.508;5.406;2022-12-08T05:46:40;100770.03;;;3.03;100.00
54042;BME280;41156;51.508;5.406;2022-12-08T05:49:40;100776.88;;;2.97;100.00
54042;BME280;41156;51.508;5.406;2022-12-08T05:52:41;100773.03;;;2.92;100.00
54042;BME280;41156;51.508;5.406;2022-12-08T05:55:41;100762.53;;;2.82;100.00
54042;BME280;41156;51.508;5.406;2022-12-08T05:58:41;100764.84;;;2.77;100.00
54042;BME280;41156;51.508;5.406;2022-12-08T06:01:41;100757.84;;;2.76;100.00
54042;BME280;41156;51.508;5.406;2022-12-08T06:04:42;100756.84;;;2.77;100.00
54042;BME280;41156;51.508;5.406;2022-12-08T06:07:42;100762.19;;;2.77;100.00
54042;BME280;41156;51.508;5.406;2022-12-08T06:10:43;100747.00;;;2.77;100.00
54042;BME280;41156;51.508;5.406;2022-12-08T06:13:44;100748.84;;;2.77;100.00
54042;BME280;41156;51.508;5.406;2022-12-08T06:16:44;100747.16;;;2.76;100.00
54042;BME280;41156;51.508;5.406;2022-12-08T06:19:45;100749.66;;;2.77;100.00
54042;BME280;41156;51.508;5.406;2022-12-08T06:22:45;100745.16;;;2.78;100.00
54042;BME280;41156;51.508;5.406;2022-12-08T06:25:45;100754.69;;;2.81;100.00
54042;BME280;41156;51.508;5.406;2022-12-08T06:28:46;100749.34;;;2.81;100.00
54042;BME280;41156;51.508;5.406;2022-12-08T06:31:46;100750.16;;;2.81;100.00
54042;BME280;41156;51.508;5.406;2022-12-08T06:34:46;100746.50;;;2.82;100.00
54042;BME280;41156;51.508;5.406;2022-12-08T06:37:47;100744.66;;;2.83;100.00
54042;BME280;41156;51.508;5.406;2022-12-08T06:40:54;100750.00;;;2.83;100.00
54042;BME280;41156;51.508;5.406;2022-12-08T06:43:55;100750.16;;;2.81;100.00
54042;BME280;41156;51.508;5.406;2022-12-08T06:46:56;100749.34;;;2.81;100.00
54042;BME280;41156;51.508;5.406;2022-12-08T06:49:56;100747.34;;;2.83;100.00
54042;BME280;41156;51.508;5.406;2022-12-08T06:52:57;100746.50;;;2.82;100.00
54042;BME280;41156;51.508;5.406;2022-12-08T06:55:57;100744.66;;;2.83;100.00
54042;BME280;41156;51.508;5.406;2022-12-08T06:58:57;100751.84;;;2.82;100.00
54042;BME280;41156;51.508;5.406;2022-12-08T07:01:58;100737.50;;;2.83;100.00
54042;BME280;41156;51.508;5.406;2022-12-08T07:04:58;100739.81;;;2.86;100.00
54042;BME280;41156;51.508;5.406;2022-12-08T07:07:58;100740.50;;;2.88;100.00
54042;BME280;41156;51.508;5.406;2022-12-08T07:10:58;100743.84;;;2.90;100.00
54042;BME280;41156;51.508;5.406;2022-12-08T07:13:59;100743.03;;;2.90;100.00
54042;BME280;41156;51.508;5.406;2022-12-08T07:16:59;100743.03;;;2.90;100.00
54042;BME280;41156;51.508;5.406;2022-12-08T07:19:59;100744.66;;;2.91;100.00
54042;BME280;41156;51.508;5.406;2022-12-08T07:23:00;100747.84;;;2.94;100.00
54042;BME280;41156;51.508;5.406;2022-12-08T07:26:04;100746.03;;;2.95;100.00
54042;BME280;41156;51.508;5.406;2022-12-08T07:29:05;100755.03;;;2.94;100.00
54042;BME280;41156;51.508;5.406;2022-12-08T07:32:06;100755.03;;;2.94;100.00
54042;BME280;41156;51.508;5.406;2022-12-08T07:35:07;100755.03;;;2.94;100.00
54042;BME280;41156;51.508;5.406;2022-12-08T07:38:11;100754.19;;;2.93;100.00
54042;BME280;41156;51.508;5.406;2022-12-08T07:41:16;100753.16;;;2.94;100.00
54042;BME280;41156;51.508;5.406;2022-12-08T07:44:16;100748.53;;;2.96;100.00
54042;BME280;41156;51.508;5.406;2022-12-08T07:47:16;100739.66;;;2.96;100.00
54042;BME280;41156;51.508;5.406;2022-12-08T07:50:17;100738.66;;;2.97;100.00
54042;BME280;41156;51.508;5.406;2022-12-08T07:53:17;100742.16;;;2.97;100.00
54042;BME280;41156;51.508;5.406;2022-12-08T07:56:17;100746.50;;;2.99;100.00
54042;BME280;41156;51.508;5.406;2022-12-08T07:59:18;100751.00;;;2.98;100.00
54042;BME280;41156;51.508;5.406;2022-12-08T08:02:18;100751.00;;;2.98;100.00
54042;BME280;41156;51.508;5.406;2022-12-08T08:05:19;100758.34;;;2.96;100.00
54042;BME280;41156;51.508;5.406;2022-12-08T08:08:19;100754.03;;;2.95;100.00
54042;BME280;41156;51.508;5.406;2022-12-08T08:11:20;100749.84;;;2.92;100.00
54042;BME280;41156;51.508;5.406;2022-12-08T08:14:20;100753.69;;;2.90;100.00
54042;BME280;41156;51.508;5.406;2022-12-08T08:17:21;100755.69;;;2.88;100.00
54042;BME280;41156;51.508;5.406;2022-12-08T08:20:21;100750.50;;;2.86;100.00
54042;BME280;41156;51.508;5.406;2022-12-08T08:23:22;100753.16;;;2.86;100.00
54042;BME280;41156;51.508;5.406;2022-12-08T08:26:22;100752.19;;;2.87;100.00
54042;BME280;41156;51.508;5.406;2022-12-08T08:29:22;100751.19;;;2.88;100.00
54042;BME280;41156;51.508;5.406;2022-12-08T08:32:22;100751.19;;;2.88;100.00
54042;BME280;41156;51.508;5.406;2022-12-08T08:35:23;100755.84;;;2.86;100.00
54042;BME280;41156;51.508;5.406;2022-12-08T08:38:23;100751.19;;;2.88;100.00
54042;BME280;41156;51.508;5.406;2022-12-08T08:41:24;100754.34;;;2.92;100.00
54042;BME280;41156;51.508;5.406;2022-12-08T08:44:25;100744.34;;;2.94;100.00
54042;BME280;41156;51.508;5.406;2022-12-08T08:47:25;100751.19;;;2.96;100.00
54042;BME280;41156;51.508;5.406;2022-12-08T08:50:25;100748.16;;;3.00;100.00
54042;BME280;41156;51.508;5.406;2022-12-08T08:53:26;100750.34;;;3.04;100.00
54042;BME280;41156;51.508;5.406;2022-12-08T08:56:26;100745.50;;;3.08;100.00
54042;BME280;41156;51.508;5.406;2022-12-08T08:59:27;100748.69;;;3.11;100.00
54042;BME280;41156;51.508;5.406;2022-12-08T09:02:27;100750.16;;;3.14;100.00
54042;BME280;41156;51.508;5.406;2022-12-08T09:05:28;100741.00;;;3.17;100.00
54042;BME280;41156;51.508;5.406;2022-12-08T09:08:28;100743.31;;;3.20;100.00
54042;BME280;41156;51.508;5.406;2022-12-08T09:11:28;100741.16;;;3.23;100.00
54042;BME280;41156;51.508;5.406;2022-12-08T09:14:29;100741.81;;;3.25;100.00
54042;BME280;41156;51.508;5.406;2022-12-08T09:17:29;100743.47;;;3.26;100.00
54042;BME280;41156;51.508;5.406;2022-12-08T09:20:29;100745.97;;;3.28;100.00
54042;BME280;41156;51.508;5.406;2022-12-08T09:23:30;100744.16;;;3.28;100.00
54042;BME280;41156;51.508;5.406;2022-12-08T09:26:30;100740.94;;;3.33;100.00
54042;BME280;41156;51.508;5.406;2022-12-08T09:29:30;100745.44;;;3.41;100.00
54042;BME280;41156;51.508;5.406;2022-12-08T09:32:31;100741.44;;;3.45;100.00
54042;BME280;41156;51.508;5.406;2022-12-08T09:35:32;100737.41;;;3.49;100.00
54042;BME280;41156;51.508;5.406;2022-12-08T09:38:32;100739.75;;;3.52;100.00
54042;BME280;41156;51.508;5.406;2022-12-08T09:41:35;100737.56;;;3.56;100.00
54042;BME280;41156;51.508;5.406;2022-12-08T09:44:46;100732.22;;;3.56;100.00
54042;BME280;41156;51.508;5.406;2022-12-08T09:51:30;100741.38;;;3.61;100.00
54042;BME280;41156;51.508;5.406;2022-12-08T09:54:35;100742.72;;;3.65;100.00
54042;BME280;41156;51.508;5.406;2022-12-08T09:57:35;100735.66;;;3.73;100.00
54042;BME280;41156;51.508;5.406;2022-12-08T10:00:36;100735.16;;;3.77;100.00
54042;BME280;41156;51.508;5.406;2022-12-08T10:03:36;100728.31;;;3.75;100.00
54042;BME280;41156;51.508;5.406;2022-12-08T10:06:58;100724.63;;;3.76;100.00
54042;BME280;41156;51.508;5.406;2022-12-08T10:13:09;100725.69;;;3.66;100.00
54042;BME280;41156;51.508;5.406;2022-12-08T10:19:30;100724.50;;;3.69;100.00
54042;BME280;41156;51.508;5.406;2022-12-08T10:22:33;100721.00;;;3.68;100.00
54042;BME280;41156;51.508;5.406;2022-12-08T10:25:37;100710.78;;;3.72;100.00
54042;BME280;41156;51.508;5.406;2022-12-08T10:28:38;100713.78;;;3.77;100.00
54042;BME280;41156;51.508;5.406;2022-12-08T10:31:39;100714.25;;;3.81;100.00
54042;BME280;41156;51.508;5.406;2022-12-08T10:38:04;100704.59;;;3.80;100.00
54042;BME280;41156;51.508;5.406;2022-12-08T10:44:08;100707.63;;;3.68;100.00
54042;BME280;41156;51.508;5.406;2022-12-08T10:47:12;100701.28;;;3.61;100.00
54042;BME280;41156;51.508;5.406;2022-12-08T10:50:28;100712.19;;;3.60;100.00
54042;BME280;41156;51.508;5.406;2022-12-08T10:53:31;100712.88;;;3.54;100.00
54042;BME280;41156;51.508;5.406;2022-12-08T10:56:32;100708.03;;;3.49;100.00
54042;BME280;41156;51.508;5.406;2022-12-08T10:59:32;100716.38;;;3.46;100.00
54042;BME280;41156;51.508;5.406;2022-12-08T11:02:33;100713.72;;;3.46;100.00
54042;BME280;41156;51.508;5.406;2022-12-08T11:05:34;100719.22;;;3.44;100.00
54042;BME280;41156;51.508;5.406;2022-12-08T11:08:45;100708.22;;;3.39;100.00
54042;BME280;41156;51.508;5.406;2022-12-08T11:11:50;100697.72;;;3.38;100.00
54042;BME280;41156;51.508;5.406;2022-12-08T11:14:57;100696.72;;;3.39;100.00
54042;BME280;41156;51.508;5.406;2022-12-08T11:18:07;100693.38;;;3.37;100.00
54042;BME280;41156;51.508;5.406;2022-12-08T11:21:17;100696.88;;;3.37;100.00
54042;BME280;41156;51.508;5.406;2022-12-08T11:24:22;100688.72;;;3.30;100.00
54042;BME280;41156;51.508;5.406;2022-12-08T11:27:22;100686.06;;;3.22;100.00
54042;BME280;41156;51.508;5.406;2022-12-08T11:30:26;100684.75;;;3.18;100.00
54042;BME280;41156;51.508;5.406;2022-12-08T11:33:28;100676.41;;;3.13;100.00
54042;BME280;41156;51.508;5.406;2022-12-08T11:36:30;100676.59;;;3.11;100.00
54042;BME280;41156;51.508;5.406;2022-12-08T11:39:35;100672.09;;;3.12;100.00
54042;BME280;41156;51.508;5.406;2022-12-08T11:43:11;100676.06;;;3.16;100.00
54042;BME280;41156;51.508;5.406;2022-12-08T11:46:27;100665.69;;;3.21;100.00
54042;BME280;41156;51.508;5.406;2022-12-08T11:49:38;100667.03;;;3.25;100.00
54042;BME280;41156;51.508;5.406;2022-12-08T11:52:46;100666.22;;;3.25;100.00
54042;BME280;41156;51.508;5.406;2022-12-08T11:55:59;100667.03;;;3.25;100.00
54042;BME280;41156;51.508;5.406;2022-12-08T12:02:21;100657.34;;;3.24;100.00
54042;BME280;41156;51.508;5.406;2022-12-08T12:15:53;100649.63;;;3.38;100.00
54042;BME280;41156;51.508;5.406;2022-12-08T12:19:02;100647.09;;;3.44;100.00
54042;BME280;41156;51.508;5.406;2022-12-08T12:22:22;100648.59;;;3.47;100.00
54042;BME280;41156;51.508;5.406;2022-12-08T12:25:24;100648.91;;;3.52;100.00
54042;BME280;41156;51.508;5.406;2022-12-08T12:28:29;100650.94;;;3.50;100.00
54042;BME280;41156;51.508;5.406;2022-12-08T12:31:39;100642.06;;;3.49;100.00
54042;BME280;41156;51.508;5.406;2022-12-08T12:34:49;100640.91;;;3.52;100.00
54042;BME280;41156;51.508;5.406;2022-12-08T12:37:56;100636.38;;;3.52;100.00
54042;BME280;41156;51.508;5.406;2022-12-08T12:41:00;100634.72;;;3.51;100.00
54042;BME280;41156;51.508;5.406;2022-12-08T12:51:53;100630.03;;;3.54;100.00
54042;BME280;41156;51.508;5.406;2022-12-08T12:57:57;100619.16;;;3.63;100.00
54042;BME280;41156;51.508;5.406;2022-12-08T13:04:10;100617.91;;;3.74;100.00
54042;BME280;41156;51.508;5.406;2022-12-08T13:07:22;100621.59;;;3.73;100.00
54042;BME280;41156;51.508;5.406;2022-12-08T13:10:32;100617.91;;;3.74;100.00
54042;BME280;41156;51.508;5.406;2022-12-08T13:13:36;100621.59;;;3.73;100.00
54042;BME280;41156;51.508;5.406;2022-12-08T13:16:38;100616.91;;;3.75;100.00
54042;BME280;41156;51.508;5.406;2022-12-08T13:19:39;100615.06;;;3.76;100.00
54042;BME280;41156;51.508;5.406;2022-12-08T13:26:10;100622.84;;;3.85;100.00
54042;BME280;41156;51.508;5.406;2022-12-08T13:29:22;100625.00;;;3.90;100.00
54042;BME280;41156;51.508;5.406;2022-12-08T13:32:53;100614.50;;;3.88;100.00
54042;BME280;41156;51.508;5.406;2022-12-08T13:36:09;100614.84;;;3.85;100.00
54042;BME280;41156;51.508;5.406;2022-12-08T13:39:19;100608.50;;;3.86;100.00
54042;BME280;41156;51.508;5.406;2022-12-08T13:42:28;100599.09;;;3.91;100.00
54042;BME280;41156;51.508;5.406;2022-12-08T13:45:29;100589.91;;;3.93;100.00
54042;BME280;41156;51.508;5.406;2022-12-08T13:48:43;100577.53;;;3.92;100.00
54042;BME280;41156;51.508;5.406;2022-12-08T13:51:46;100589.41;;;3.89;100.00
54042;BME280;41156;51.508;5.406;2022-12-08T13:54:48;100578.06;;;3.87;100.00
54042;BME280;41156;51.508;5.406;2022-12-08T13:57:49;100571.41;;;3.83;100.00
54042;BME280;41156;51.508;5.406;2022-12-08T14:01:10;100581.44;;;3.81;100.00
54042;BME280;41156;51.508;5.406;2022-12-08T14:04:17;100573.63;;;3.80;100.00
54042;BME280;41156;51.508;5.406;2022-12-08T14:07:20;100581.25;;;3.83;100.00
54042;BME280;41156;51.508;5.406;2022-12-08T14:10:26;100584.97;;;3.82;100.00
54042;BME280;41156;51.508;5.406;2022-12-08T14:13:29;100587.97;;;3.79;100.00
54042;BME280;41156;51.508;5.406;2022-12-08T14:16:39;100593.16;;;3.80;100.00
54042;BME280;41156;51.508;5.406;2022-12-08T14:19:43;100599.38;;;3.73;100.00
54042;BME280;41156;51.508;5.406;2022-12-08T14:22:43;100602.03;;;3.73;100.00
54042;BME280;41156;51.508;5.406;2022-12-08T14:25:46;100598.38;;;3.74;100.00
54042;BME280;41156;51.508;5.406;2022-12-08T14:28:48;100596.69;;;3.73;100.00
54042;BME280;41156;51.508;5.406;2022-12-08T14:31:48;100593.72;;;3.67;100.00
54042;BME280;41156;51.508;5.406;2022-12-08T14:35:00;100580.22;;;3.61;100.00
54042;BME280;41156;51.508;5.406;2022-12-08T14:41:07;100588.59;;;3.58;100.00
54042;BME280;41156;51.508;5.406;2022-12-08T14:44:22;100590.63;;;3.56;100.00
54042;BME280;41156;51.508;5.406;2022-12-08T14:47:27;100584.31;;;3.48;100.00
54042;BME280;41156;51.508;5.406;2022-12-08T14:53:41;100590.88;;;3.38;100.00
54042;BME280;41156;51.508;5.406;2022-12-08T14:59:50;100591.75;;;3.30;100.00
54042;BME280;41156;51.508;5.406;2022-12-08T15:02:50;100593.56;;;3.29;100.00
54042;BME280;41156;51.508;5.406;2022-12-08T15:05:55;100590.91;;;3.29;100.00
54042;BME280;41156;51.508;5.406;2022-12-08T15:08:57;100593.09;;;3.26;100.00
54042;BME280;41156;51.508;5.406;2022-12-08T15:12:00;100595.28;;;3.22;100.00
54042;BME280;41156;51.508;5.406;2022-12-08T15:15:21;100589.63;;;3.17;100.00
54042;BME280;41156;51.508;5.406;2022-12-08T15:18:38;100597.81;;;3.07;100.00
54042;BME280;41156;51.508;5.406;2022-12-08T15:21:39;100594.53;;;2.97;100.00
54042;BME280;41156;51.508;5.406;2022-12-08T15:24:39;100597.69;;;2.92;100.00
54042;BME280;41156;51.508;5.406;2022-12-08T15:27:40;100604.41;;;2.88;100.00
54042;BME280;41156;51.508;5.406;2022-12-08T15:30:40;100610.06;;;2.85;100.00
54042;BME280;41156;51.508;5.406;2022-12-08T15:33:40;100612.25;;;2.82;100.00
54042;BME280;41156;51.508;5.406;2022-12-08T15:36:41;100617.44;;;2.75;100.00
54042;BME280;41156;51.508;5.406;2022-12-08T15:39:42;100611.25;;;2.66;100.00
54042;BME280;41156;51.508;5.406;2022-12-08T15:42:42;100604.44;;;2.55;100.00
54042;BME280;41156;51.508;5.406;2022-12-08T15:45:42;100602.44;;;2.49;100.00
54042;BME280;41156;51.508;5.406;2022-12-08T15:48:43;100605.75;;;2.43;100.00
54042;BME280;41156;51.508;5.406;2022-12-08T15:51:44;100619.47;;;2.40;100.00
54042;BME280;41156;51.508;5.406;2022-12-08T15:54:45;100615.63;;;2.34;100.00
54042;BME280;41156;51.508;5.406;2022-12-08T15:57:50;100612.63;;;2.29;100.00
54042;BME280;41156;51.508;5.406;2022-12-08T16:00:52;100615.13;;;2.22;100.00
54042;BME280;41156;51.508;5.406;2022-12-08T16:03:53;100614.13;;;2.15;100.00
54042;BME280;41156;51.508;5.406;2022-12-08T16:06:54;100611.13;;;2.10;100.00
54042;BME280;41156;51.508;5.406;2022-12-08T16:09:54;100620.75;;;2.11;100.00
54042;BME280;41156;51.508;5.406;2022-12-08T16:12:55;100619.94;;;2.11;100.00
54042;BME280;41156;51.508;5.406;2022-12-08T16:16:14;100618.94;;;2.12;100.00
54042;BME280;41156;51.508;5.406;2022-12-08T16:19:20;100611.78;;;2.12;100.00
54042;BME280;41156;51.508;5.406;2022-12-08T16:22:28;100610.59;;;2.15;100.00
54042;BME280;41156;51.508;5.406;2022-12-08T16:25:29;100609.78;;;2.14;100.00
54042;BME280;41156;51.508;5.406;2022-12-08T16:28:29;100592.13;;;2.13;100.00
54042;BME280;41156;51.508;5.406;2022-12-08T16:31:30;100595.63;;;2.14;100.00
54042;BME280;41156;51.508;5.406;2022-12-08T16:34:30;100588.59;;;2.13;100.00
54042;BME280;41156;51.508;5.406;2022-12-08T16:37:30;100589.63;;;2.12;100.00
54042;BME280;41156;51.508;5.406;2022-12-08T16:40:31;100589.28;;;2.07;100.00
54042;BME280;41156;51.508;5.406;2022-12-08T16:43:32;100591.59;;;2.01;100.00
54042;BME280;41156;51.508;5.406;2022-12-08T16:46:33;100584.44;;;1.94;100.00
54042;BME280;41156;51.508;5.406;2022-12-08T16:49:36;100591.44;;;1.87;100.00
54042;BME280;41156;51.508;5.406;2022-12-08T16:52:38;100584.41;;;1.77;100.00
54042;BME280;41156;51.508;5.406;2022-12-08T16:55:39;100578.41;;;1.67;100.00
54042;BME280;41156;51.508;5.406;2022-12-08T16:58:39;100576.84;;;1.56;100.00
54042;BME280;41156;51.508;5.406;2022-12-08T17:01:39;100583.19;;;1.47;100.00
54042;BME280;41156;51.508;5.406;2022-12-08T17:04:39;100581.97;;;1.41;100.00
54042;BME280;41156;51.508;5.406;2022-12-08T17:07:41;100579.81;;;1.37;100.00
54042;BME280;41156;51.508;5.406;2022-12-08T17:10:42;100583.63;;;1.34;100.00
54042;BME280;41156;51.508;5.406;2022-12-08T17:13:42;100575.63;;;1.34;100.00
54042;BME280;41156;51.508;5.406;2022-12-08T17:16:43;100586.47;;;1.41;100.00
54042;BME280;41156;51.508;5.406;2022-12-08T17:19:44;100583.84;;;1.49;100.00